Time;durP1;ratioP1;P1;durP2;ratioP2;P2;SDS_P1;SDS_P2;PMS_P1;PMS_P2;Temp;Humidity;BMP_temperature;BMP_pressure;BME280_temperature;BME280_humidity;BME280_pressure;Samples;Min_cycle;Max_cycle;Signal;HPM_P1;HPM_P2
2023/11/18 00:01:43;;;;;;;;;;;;;;;6.66;100.00;102248.06;4990347;28;20373;-40
2023/11/18 00:04:15;;;;;;;;;;;;;;;6.63;100.00;102250.13;5013684;28;20011;-41
2023/11/18 00:06:40;;;;;;;;;;;;;;;6.61;100.00;102247.59;5013713;28;19967;-39
2023/11/18 00:09:06;;;;;;;;;;;;;;;6.58;100.00;102250.47;5013546;28;20284;-40
2023/11/18 00:11:31;;;;;;;;;;;;;;;6.56;100.00;102253.28;5013730;28;20364;-40
2023/11/18 00:13:56;;;;;;;;;;;;;;;6.55;100.00;102243.53;5009652;28;19940;-40
2023/11/18 00:16:22;;;;;;;;;;;;;;;6.49;100.00;102244.03;5014809;28;19988;-41
2023/11/18 00:18:48;;;;;;;;;;;;;;;6.43;100.00;102249.03;5012753;28;19960;-41
2023/11/18 00:21:13;;;;;;;;;;;;;;;6.38;100.00;102255.59;4999765;28;19914;-40
2023/11/18 00:23:39;;;;;;;;;;;;;;;6.35;100.00;102250.47;5017427;28;19917;-41
2023/11/18 00:26:06;;;;;;;;;;;;;;;6.32;100.00;102253.41;5009799;28;19976;-41
2023/11/18 00:28:32;;;;;;;;;;;;;;;6.28;100.00;102251.91;5010283;28;19935;-39
2023/11/18 00:30:57;;;;;;;;;;;;;;;6.27;100.00;102254.72;5011582;28;19953;-41
2023/11/18 00:33:22;;;;;;;;;;;;;;;6.29;100.00;102258.13;5018819;28;20275;-42
2023/11/18 00:35:47;;;;;;;;;;;;;;;6.26;100.00;102256.53;5016761;28;20343;-42
2023/11/18 00:38:13;;;;;;;;;;;;;;;6.26;100.00;102258.34;5010509;28;19917;-41
2023/11/18 00:40:38;;;;;;;;;;;;;;;6.25;100.00;102257.50;5020044;28;19918;-40
2023/11/18 00:43:03;;;;;;;;;;;;;;;6.28;100.00;102267.97;5018398;28;19925;-40
2023/11/18 00:45:28;;;;;;;;;;;;;;;6.28;100.00;102262.63;5017773;28;19913;-40
2023/11/18 00:47:54;;;;;;;;;;;;;;;6.28;100.00;102267.13;5014698;28;19952;-40
2023/11/18 00:50:19;;;;;;;;;;;;;;;6.31;100.00;102262.38;5014889;28;19917;-40
2023/11/18 00:52:48;;;;;;;;;;;;;;;6.31;100.00;102259.69;5004393;28;20012;-41
2023/11/18 00:55:13;;;;;;;;;;;;;;;6.32;100.00;102263.25;5002443;28;20284;-41
2023/11/18 00:57:41;;;;;;;;;;;;;;;6.32;100.00;102269.44;5021747;28;19918;-40
2023/11/18 01:00:07;;;;;;;;;;;;;;;6.35;100.00;102269.19;5029208;28;19913;-40
2023/11/18 01:02:33;;;;;;;;;;;;;;;6.37;100.00;102272.59;5012660;28;19921;-39
2023/11/18 01:04:58;;;;;;;;;;;;;;;6.40;100.00;102266.16;5010828;28;19919;-40
2023/11/18 01:07:23;;;;;;;;;;;;;;;6.40;100.00;102265.28;5016044;28;19909;-41
2023/11/18 01:09:49;;;;;;;;;;;;;;;6.43;100.00;102267.75;5016488;28;19920;-40
2023/11/18 01:12:15;;;;;;;;;;;;;;;6.46;100.00;102267.50;5005313;28;20329;-39
2023/11/18 01:14:41;;;;;;;;;;;;;;;6.48;100.00;102262.91;5002943;28;20015;-41
2023/11/18 01:17:07;;;;;;;;;;;;;;;6.49;100.00;102259.25;5016193;28;19913;-40
2023/11/18 01:19:33;;;;;;;;;;;;;;;6.49;100.00;102257.41;5013120;28;19987;-39
2023/11/18 01:21:58;;;;;;;;;;;;;;;6.51;100.00;102260.81;5002975;28;19925;-40
2023/11/18 01:24:23;;;;;;;;;;;;;;;6.56;100.00;102261.31;5002981;28;20266;-41
2023/11/18 01:26:49;;;;;;;;;;;;;;;6.59;100.00;102276.28;5007676;28;19957;-39
2023/11/18 01:29:14;;;;;;;;;;;;;;;6.62;100.00;102280.53;5005193;28;19914;-41
2023/11/18 01:31:42;;;;;;;;;;;;;;;6.66;100.00;102271.28;5012985;28;19967;-41
2023/11/18 01:34:07;;;;;;;;;;;;;;;6.66;100.00;102263.25;5012528;28;19917;-41
2023/11/18 01:36:32;;;;;;;;;;;;;;;6.64;100.00;102260.72;5010992;28;20442;-39
2023/11/18 01:38:58;;;;;;;;;;;;;;;6.66;100.00;102266.81;5002450;28;19987;-41
2023/11/18 01:41:23;;;;;;;;;;;;;;;6.65;100.00;102272.25;5002109;28;20343;-40
2023/11/18 01:43:48;;;;;;;;;;;;;;;6.65;100.00;102267.75;5008725;28;20011;-40
2023/11/18 01:46:13;;;;;;;;;;;;;;;6.67;100.00;102273.84;5016030;28;20020;-40
2023/11/18 01:48:39;;;;;;;;;;;;;;;6.71;100.00;102264.59;5018822;28;19956;-40
2023/11/18 01:51:05;;;;;;;;;;;;;;;6.71;100.00;102258.38;4991471;28;19956;-40
2023/11/18 01:53:30;;;;;;;;;;;;;;;6.71;100.00;102259.22;4995603;28;19921;-41
2023/11/18 01:55:55;;;;;;;;;;;;;;;6.73;100.00;102254.63;4990240;28;20320;-41
2023/11/18 01:58:22;;;;;;;;;;;;;;;6.75;100.00;102255.34;5025521;28;20363;-41
2023/11/18 02:00:48;;;;;;;;;;;;;;;6.70;100.00;102252.19;5006224;28;19918;-40
2023/11/18 02:03:13;;;;;;;;;;;;;;;6.71;100.00;102264.59;4991318;28;19925;-40
2023/11/18 02:05:38;;;;;;;;;;;;;;;6.71;100.00;102259.22;5001523;28;19940;-40
2023/11/18 02:08:04;;;;;;;;;;;;;;;6.70;100.00;102267.41;5019929;28;19921;-40
2023/11/18 02:10:30;;;;;;;;;;;;;;;6.69;100.00;102265.69;4996411;28;19917;-40
2023/11/18 02:13:07;;;;;;;;;;;;;;;6.70;100.00;102260.22;5013053;28;19964;-41
2023/11/18 02:15:33;;;;;;;;;;;;;;;6.69;100.00;102263.00;5010772;28;19917;-41
2023/11/18 02:17:59;;;;;;;;;;;;;;;6.66;100.00;102244.53;5017881;28;19917;-40
2023/11/18 02:20:24;;;;;;;;;;;;;;;6.63;100.00;102250.13;4987438;28;20439;-39
2023/11/18 02:22:49;;;;;;;;;;;;;;;6.61;100.00;102247.59;4999766;28;20390;-40
2023/11/18 02:25:18;;;;;;;;;;;;;;;6.61;100.00;102242.25;5035328;28;20346;-41
2023/11/18 02:27:43;;;;;;;;;;;;;;;6.61;100.00;102242.25;5015778;28;19955;-40
2023/11/18 02:30:12;;;;;;;;;;;;;;;6.62;100.00;102241.25;5033275;28;19924;-39
2023/11/18 02:32:39;;;;;;;;;;;;;;;6.64;100.00;102235.78;5021825;28;19939;-41
2023/11/18 02:35:09;;;;;;;;;;;;;;;6.61;100.00;102231.53;5024506;28;19924;-40
2023/11/18 02:37:35;;;;;;;;;;;;;;;6.57;100.00;102230.06;5031988;28;19924;-39
2023/11/18 02:40:03;;;;;;;;;;;;;;;6.61;100.00;102228.84;5015796;28;19921;-41
2023/11/18 02:42:29;;;;;;;;;;;;;;;6.57;100.00;102233.59;5025147;28;19916;-39
2023/11/18 02:44:59;;;;;;;;;;;;;;;6.58;100.00;102232.63;5027329;28;20315;-41
2023/11/18 02:47:24;;;;;;;;;;;;;;;6.53;100.00;102225.91;4999984;28;19960;-41
2023/11/18 02:49:53;;;;;;;;;;;;;;;6.51;100.00;102214.50;5015574;28;19984;-40
2023/11/18 02:52:19;;;;;;;;;;;;;;;6.42;100.00;102213.41;5035828;28;20287;-39
2023/11/18 02:54:44;;;;;;;;;;;;;;;6.43;100.00;102216.94;5040605;28;19925;-41
2023/11/18 02:57:09;;;;;;;;;;;;;;;6.43;100.00;102220.47;5029025;28;19917;-40
2023/11/18 02:59:34;;;;;;;;;;;;;;;6.43;100.00;102216.94;5037725;28;19971;-41
2023/11/18 03:02:01;;;;;;;;;;;;;;;6.36;100.00;102219.25;5041958;28;19916;-40
2023/11/18 03:04:26;;;;;;;;;;;;;;;6.40;100.00;102206.47;5040349;28;19917;-39
2023/11/18 03:06:52;;;;;;;;;;;;;;;6.43;100.00;102206.25;5040858;28;20348;-40
2023/11/18 03:09:18;;;;;;;;;;;;;;;6.40;100.00;102198.44;5038273;28;19924;-41
2023/11/18 03:11:44;;;;;;;;;;;;;;;6.41;100.00;102200.16;5046105;28;19929;-40
2023/11/18 03:14:09;;;;;;;;;;;;;;;6.37;100.00;102203.09;5033452;28;19924;-39
2023/11/18 03:16:35;;;;;;;;;;;;;;;6.43;100.00;102200.91;5024119;28;19924;-39
2023/11/18 03:19:01;;;;;;;;;;;;;;;6.40;100.00;102185.06;5038465;28;19917;-40
2023/11/18 03:21:26;;;;;;;;;;;;;;;6.35;100.00;102180.13;5031705;28;20280;-40
2023/11/18 03:23:53;;;;;;;;;;;;;;;6.35;100.00;102166.75;5032414;28;19944;-39
2023/11/18 03:26:18;;;;;;;;;;;;;;;6.37;100.00;102160.31;5024142;28;20011;-41
2023/11/18 03:28:43;;;;;;;;;;;;;;;6.35;100.00;102153.38;4998556;28;20416;-40
2023/11/18 03:31:09;;;;;;;;;;;;;;;6.37;100.00;102165.66;5016949;28;20363;-40
2023/11/18 03:33:34;;;;;;;;;;;;;;;6.42;100.00;102153.72;4998153;28;19918;-41
2023/11/18 03:35:59;;;;;;;;;;;;;;;6.51;100.00;102144.97;4984340;28;19922;-41
2023/11/18 03:38:24;;;;;;;;;;;;;;;6.47;100.00;102140.81;4998383;28;19980;-41
2023/11/18 03:40:50;;;;;;;;;;;;;;;6.49;100.00;102122.84;5008384;28;19917;-40
2023/11/18 03:43:15;;;;;;;;;;;;;;;6.48;100.00;102126.50;5010335;28;19918;-40
2023/11/18 03:45:40;;;;;;;;;;;;;;;6.46;100.00;102131.13;5019794;28;20011;-42
2023/11/18 03:48:06;;;;;;;;;;;;;;;6.50;100.00;102137.91;5017831;28;20008;-40
2023/11/18 03:50:31;;;;;;;;;;;;;;;6.52;100.00;102141.31;5013098;28;19964;-40
2023/11/18 03:52:56;;;;;;;;;;;;;;;6.54;100.00;102129.50;4999604;28;19917;-41
2023/11/18 03:55:22;;;;;;;;;;;;;;;6.56;100.00;102116.88;4994758;28;19925;-40
2023/11/18 03:57:47;;;;;;;;;;;;;;;6.49;100.00;102114.81;4993680;28;19980;-41
2023/11/18 04:00:15;;;;;;;;;;;;;;;6.49;100.00;102104.13;4993761;28;20016;-40
2023/11/18 04:02:40;;;;;;;;;;;;;;;6.52;100.00;102103.88;5002887;28;19917;-40
2023/11/18 04:05:05;;;;;;;;;;;;;;;6.59;100.00;102086.34;5012135;28;19918;-40
2023/11/18 04:07:31;;;;;;;;;;;;;;;6.55;100.00;102083.06;5013123;28;19932;-39
2023/11/18 04:09:56;;;;;;;;;;;;;;;6.55;100.00;102082.22;5006603;28;19917;-40
2023/11/18 04:12:24;;;;;;;;;;;;;;;6.52;100.00;102087.81;5000859;28;19968;-41
2023/11/18 04:14:49;;;;;;;;;;;;;;;6.57;100.00;102067.75;4993216;28;20382;-40
2023/11/18 04:17:14;;;;;;;;;;;;;;;6.55;100.00;102055.47;4997086;28;20016;-41
2023/11/18 04:19:39;;;;;;;;;;;;;;;6.62;100.00;102059.34;4992201;28;19914;-40
2023/11/18 04:22:05;;;;;;;;;;;;;;;6.60;100.00;102059.47;5006384;28;20015;-41
2023/11/18 04:24:30;;;;;;;;;;;;;;;6.59;100.00;102067.63;5030635;28;19928;-39
2023/11/18 04:26:55;;;;;;;;;;;;;;;6.57;100.00;102058.88;5026412;28;19932;-40
2023/11/18 04:29:21;;;;;;;;;;;;;;;6.60;100.00;102054.09;5033767;28;19920;-41
2023/11/18 04:31:46;;;;;;;;;;;;;;;6.59;100.00;102051.56;5038911;28;20379;-40
2023/11/18 04:34:11;;;;;;;;;;;;;;;6.63;100.00;102069.06;5044318;28;20404;-41
2023/11/18 04:36:37;;;;;;;;;;;;;;;6.62;100.00;102055.81;5032393;28;20363;-41
2023/11/18 04:39:03;;;;;;;;;;;;;;;6.61;100.00;102049.63;5027724;28;19929;-40
2023/11/18 04:41:28;;;;;;;;;;;;;;;6.62;100.00;102045.97;5033574;28;19959;-40
2023/11/18 04:43:53;;;;;;;;;;;;;;;6.56;100.00;102041.13;5046338;28;19917;-41
2023/11/18 04:46:19;;;;;;;;;;;;;;;6.56;100.00;102047.34;5027497;28;20012;-40
2023/11/18 04:48:44;;;;;;;;;;;;;;;6.55;100.00;102044.78;5016825;28;19966;-40
2023/11/18 04:51:11;;;;;;;;;;;;;;;6.60;100.00;102031.88;5040452;28;19917;-41
2023/11/18 04:53:36;;;;;;;;;;;;;;;6.62;100.00;102031.75;5025837;28;19921;-40
2023/11/18 04:56:02;;;;;;;;;;;;;;;6.58;100.00;102025.78;5031739;28;19927;-41
2023/11/18 04:58:28;;;;;;;;;;;;;;;6.57;100.00;102032.13;5033700;28;19960;-40
2023/11/18 05:00:53;;;;;;;;;;;;;;;6.56;100.00;102014.38;5029277;28;20371;-41
2023/11/18 05:03:18;;;;;;;;;;;;;;;6.56;100.00;102017.06;5034372;28;19916;-40
2023/11/18 05:05:44;;;;;;;;;;;;;;;6.55;100.00;102012.66;5034256;28;19939;-40
2023/11/18 05:08:18;;;;;;;;;;;;;;;6.56;100.00;102007.22;5031886;28;19971;-41
2023/11/18 05:10:46;;;;;;;;;;;;;;;6.57;100.00;102005.38;5034227;28;19917;-41
2023/11/18 05:13:11;;;;;;;;;;;;;;;6.58;100.00;102009.75;5039182;28;19971;-41
2023/11/18 05:15:37;;;;;;;;;;;;;;;6.56;100.00;101993.00;5038542;28;19917;-42
2023/11/18 05:18:02;;;;;;;;;;;;;;;6.54;100.00;102000.28;5038986;28;19948;-41
2023/11/18 05:20:27;;;;;;;;;;;;;;;6.50;100.00;102009.53;5034345;28;19955;-40
2023/11/18 05:22:53;;;;;;;;;;;;;;;6.57;100.00;101989.31;5034529;28;19952;-40
2023/11/18 05:25:19;;;;;;;;;;;;;;;6.54;100.00;101979.72;5016250;28;20127;-41
2023/11/18 05:27:44;;;;;;;;;;;;;;;6.51;100.00;101973.81;5033423;28;19919;-41
2023/11/18 05:30:10;;;;;;;;;;;;;;;6.50;100.00;101978.31;5032379;28;19971;-40
2023/11/18 05:32:35;;;;;;;;;;;;;;;6.51;100.00;101979.16;4993988;28;19976;-41
2023/11/18 05:35:00;;;;;;;;;;;;;;;6.54;100.00;101977.06;4993415;28;19972;-40
2023/11/18 05:37:27;;;;;;;;;;;;;;;6.55;100.00;101977.91;4993596;28;20362;-41
2023/11/18 05:39:59;;;;;;;;;;;;;;;6.56;100.00;101966.25;4992989;28;19914;-40
2023/11/18 05:42:25;;;;;;;;;;;;;;;6.58;100.00;101956.25;4999963;28;19922;-41
2023/11/18 05:44:57;;;;;;;;;;;;;;;6.58;100.00;101953.56;5012714;28;19968;-41
2023/11/18 05:47:23;;;;;;;;;;;;;;;6.52;100.00;101951.41;5017991;28;20039;-41
2023/11/18 05:49:48;;;;;;;;;;;;;;;6.52;100.00;101938.88;5018433;28;19918;-41
2023/11/18 05:52:13;;;;;;;;;;;;;;;6.60;100.00;101947.13;5013803;28;19999;-39
2023/11/18 05:54:39;;;;;;;;;;;;;;;6.62;100.00;101947.00;5007139;28;20048;-41
2023/11/18 05:57:04;;;;;;;;;;;;;;;6.59;100.00;101949.94;5004346;28;19975;-40
2023/11/18 05:59:29;;;;;;;;;;;;;;;6.58;100.00;101948.22;5012271;28;20012;-40
2023/11/18 06:01:56;;;;;;;;;;;;;;;6.59;100.00;101944.59;5007189;28;20291;-40
2023/11/18 06:04:22;;;;;;;;;;;;;;;6.56;100.00;101943.00;4993420;28;20037;-41
2023/11/18 06:06:47;;;;;;;;;;;;;;;6.60;100.00;101938.25;5000641;28;20087;-41
2023/11/18 06:09:20;;;;;;;;;;;;;;;6.55;100.00;101937.78;5007496;28;20020;-41
2023/11/18 06:11:45;;;;;;;;;;;;;;;6.56;100.00;101929.66;5008642;28;20459;-40
2023/11/18 06:14:12;;;;;;;;;;;;;;;6.63;100.00;101932.63;5008145;28;20011;-40
2023/11/18 06:16:39;;;;;;;;;;;;;;;6.64;100.00;101942.38;5005669;28;19940;-41
2023/11/18 06:19:05;;;;;;;;;;;;;;;6.58;100.00;101941.06;4999919;28;19924;-41
2023/11/18 06:21:30;;;;;;;;;;;;;;;6.65;100.00;101938.72;5007166;28;20008;-40
2023/11/18 06:23:56;;;;;;;;;;;;;;;6.58;100.00;101941.06;5033350;28;20243;-41
2023/11/18 06:26:21;;;;;;;;;;;;;;;6.66;100.00;101923.50;5034337;28;19917;-41
2023/11/18 06:28:51;;;;;;;;;;;;;;;6.60;100.00;101925.72;5033924;28;20091;-41
2023/11/18 06:31:17;;;;;;;;;;;;;;;6.68;100.00;101919.72;5036735;28;20358;-41
2023/11/18 06:33:42;;;;;;;;;;;;;;;6.71;100.00;101919.44;5039034;28;19959;-41
2023/11/18 06:36:17;;;;;;;;;;;;;;;6.69;100.00;101923.25;5035522;28;20012;-40
2023/11/18 06:38:46;;;;;;;;;;;;;;;6.69;100.00;101928.59;5034133;28;19976;-41
2023/11/18 06:41:13;;;;;;;;;;;;;;;6.67;100.00;101923.38;5032516;28;20342;-41
2023/11/18 06:43:59;;;;;;;;;;;;;;;6.70;100.00;101915.09;5031457;28;19935;-39
2023/11/18 06:46:25;;;;;;;;;;;;;;;6.71;100.00;101911.44;5037486;28;19920;-40
2023/11/18 06:48:54;;;;;;;;;;;;;;;6.66;100.00;101913.69;5041674;28;20016;-39
2023/11/18 06:51:20;;;;;;;;;;;;;;;6.71;100.00;101911.44;5038787;28;19928;-41
2023/11/18 06:53:46;;;;;;;;;;;;;;;6.69;100.00;101916.09;5033139;28;19924;-40
2023/11/18 06:56:11;;;;;;;;;;;;;;;6.69;100.00;101912.53;5030821;28;19917;-40
2023/11/18 06:58:37;;;;;;;;;;;;;;;6.68;100.00;101910.84;5033235;28;19920;-41
2023/11/18 07:01:05;;;;;;;;;;;;;;;6.71;100.00;101916.78;5032165;28;19935;-39
2023/11/18 07:03:30;;;;;;;;;;;;;;;6.72;100.00;101910.47;5032307;28;20015;-39
2023/11/18 07:05:56;;;;;;;;;;;;;;;6.67;100.00;101926.06;5031951;28;20012;-40
2023/11/18 07:08:21;;;;;;;;;;;;;;;6.67;100.00;101927.91;5042543;28;19952;-40
2023/11/18 07:10:46;;;;;;;;;;;;;;;6.74;100.00;101926.38;5037018;28;19944;-39
2023/11/18 07:13:12;;;;;;;;;;;;;;;6.70;100.00;101925.78;5051140;28;19975;-41
2023/11/18 07:15:37;;;;;;;;;;;;;;;6.77;100.00;101937.69;5048826;28;20496;-38
2023/11/18 07:18:03;;;;;;;;;;;;;;;6.78;100.00;101939.38;5050532;28;19913;-41
2023/11/18 07:20:28;;;;;;;;;;;;;;;6.75;100.00;101926.25;5031241;28;20020;-40
2023/11/18 07:22:54;;;;;;;;;;;;;;;6.75;100.00;101941.47;5034417;28;19917;-41
2023/11/18 07:25:19;;;;;;;;;;;;;;;6.71;100.00;101932.81;5033417;28;19921;-40
2023/11/18 07:27:44;;;;;;;;;;;;;;;6.70;100.00;101925.78;5034603;28;20361;-41
2023/11/18 07:30:10;;;;;;;;;;;;;;;6.66;100.00;101920.81;5033723;28;19963;-40
2023/11/18 07:32:36;;;;;;;;;;;;;;;6.66;100.00;101916.34;5044325;28;19917;-40
2023/11/18 07:35:01;;;;;;;;;;;;;;;6.69;100.00;101918.75;5053213;28;19970;-41
2023/11/18 07:37:26;;;;;;;;;;;;;;;6.63;100.00;101894.34;5054652;28;20007;-39
2023/11/18 07:39:52;;;;;;;;;;;;;;;6.64;100.00;101893.38;5047768;28;19953;-39
2023/11/18 07:42:18;;;;;;;;;;;;;;;6.62;100.00;101890.81;5013685;28;19920;-40
2023/11/18 07:44:43;;;;;;;;;;;;;;;6.61;100.00;101894.50;5013603;28;19913;-37
2023/11/18 07:47:08;;;;;;;;;;;;;;;6.64;100.00;101894.22;5014609;28;19976;-40
2023/11/18 07:49:35;;;;;;;;;;;;;;;6.64;100.00;101890.72;5013840;28;20382;-39
2023/11/18 07:52:00;;;;;;;;;;;;;;;6.59;100.00;101886.59;5012928;28;19967;-38
2023/11/18 07:54:25;;;;;;;;;;;;;;;6.59;100.00;101888.41;5012533;28;20000;-40
2023/11/18 07:56:53;;;;;;;;;;;;;;;6.59;100.00;101880.38;5013433;28;20008;-40
2023/11/18 07:59:18;;;;;;;;;;;;;;;6.64;100.00;101880.00;5012826;28;19914;-41
2023/11/18 08:01:46;;;;;;;;;;;;;;;6.64;100.00;101894.22;5013791;28;19920;-39
2023/11/18 08:04:13;;;;;;;;;;;;;;;6.65;100.00;101893.22;5016784;28;19913;-41
2023/11/18 08:06:39;;;;;;;;;;;;;;;6.63;100.00;101886.31;5016817;28;20269;-40
2023/11/18 08:09:04;;;;;;;;;;;;;;;6.62;100.00;101885.47;5016601;28;19921;-42
2023/11/18 08:11:29;;;;;;;;;;;;;;;6.61;100.00;101889.13;5016276;28;20384;-40
2023/11/18 08:13:54;;;;;;;;;;;;;;;6.63;100.00;101897.00;5016874;28;19968;-40
2023/11/18 08:16:22;;;;;;;;;;;;;;;6.63;100.00;101892.50;5017588;28;19913;-40
2023/11/18 08:18:47;;;;;;;;;;;;;;;6.58;100.00;101895.59;5016731;28;20004;-39
2023/11/18 08:21:12;;;;;;;;;;;;;;;6.60;100.00;101884.75;5016464;28;20352;-39
2023/11/18 08:23:37;;;;;;;;;;;;;;;6.56;100.00;101884.16;5016473;28;20368;-40
2023/11/18 08:26:03;;;;;;;;;;;;;;;6.49;100.00;101883.00;5016924;28;19913;-40
2023/11/18 08:28:28;;;;;;;;;;;;;;;6.44;100.00;101873.66;5016615;28;20247;-38
2023/11/18 08:30:54;;;;;;;;;;;;;;;6.42;100.00;101878.28;5016342;28;19913;-41
2023/11/18 08:33:20;;;;;;;;;;;;;;;6.41;100.00;101876.59;5016305;28;19921;-41
2023/11/18 08:35:46;;;;;;;;;;;;;;;6.35;100.00;101862.78;5016369;28;20017;-42
2023/11/18 08:38:12;;;;;;;;;;;;;;;6.33;100.00;101848.69;5015848;28;19913;-42
2023/11/18 08:40:38;;;;;;;;;;;;;;;6.31;100.00;101853.28;5016112;28;20020;-44
2023/11/18 08:43:07;;;;;;;;;;;;;;;6.30;100.00;101862.31;5015927;28;19980;-43
2023/11/18 08:45:32;;;;;;;;;;;;;;;6.30;100.00;101859.63;5016056;28;20000;-43
2023/11/18 08:47:58;;;;;;;;;;;;;;;6.29;100.00;101852.59;5015241;28;19949;-43
2023/11/18 08:50:24;;;;;;;;;;;;;;;6.27;100.00;101849.19;5015824;28;19937;-42
2023/11/18 08:52:52;;;;;;;;;;;;;;;6.24;100.00;101844.13;5015808;28;20248;-45
2023/11/18 08:55:18;;;;;;;;;;;;;;;6.28;100.00;101834.84;5015727;28;19913;-45
2023/11/18 08:57:59;;;;;;;;;;;;;;;6.30;100.00;101819.53;5015974;28;19967;-44
2023/11/18 09:03:16;;;;;;;;;;;;;;;6.34;100.00;101818.28;5015949;28;19924;-44
2023/11/18 09:05:42;;;;;;;;;;;;;;;6.34;100.00;101812.94;5014298;28;19920;-43
2023/11/18 09:08:08;;;;;;;;;;;;;;;6.34;100.00;101804.91;5015672;28;19992;-43
2023/11/18 09:10:33;;;;;;;;;;;;;;;6.41;100.00;101797.22;5015380;28;19913;-42
2023/11/18 09:12:59;;;;;;;;;;;;;;;6.43;100.00;101797.09;5014936;28;19977;-44
2023/11/18 09:15:24;;;;;;;;;;;;;;;6.47;100.00;101790.50;5015535;28;19940;-42
2023/11/18 09:17:50;;;;;;;;;;;;;;;6.53;100.00;101792.63;5015662;28;19960;-41
2023/11/18 09:20:20;;;;;;;;;;;;;;;6.49;100.00;101792.06;5015219;28;20447;-43
2023/11/18 09:22:45;;;;;;;;;;;;;;;6.51;100.00;101789.28;5015617;28;19924;-41
2023/11/18 09:25:10;;;;;;;;;;;;;;;6.57;100.00;101789.56;5014980;28;19917;-43
2023/11/18 09:27:36;;;;;;;;;;;;;;;6.59;100.00;101778.75;5015156;28;19913;-43
2023/11/18 09:30:13;;;;;;;;;;;;;;;6.59;100.00;101779.59;5014582;28;19916;-42
2023/11/18 09:32:39;;;;;;;;;;;;;;;6.64;100.00;101781.03;5015185;28;20331;-42
2023/11/18 09:35:09;;;;;;;;;;;;;;;6.64;100.00;101776.53;5014849;28;19914;-42
2023/11/18 09:37:34;;;;;;;;;;;;;;;6.62;100.00;101780.31;5014984;28;20364;-41
2023/11/18 09:40:11;;;;;;;;;;;;;;;6.64;100.00;101776.53;5015230;28;20014;-41
2023/11/18 09:42:37;;;;;;;;;;;;;;;6.65;100.00;101756.81;5014729;28;20339;-40
2023/11/18 09:45:05;;;;;;;;;;;;;;;6.68;100.00;101751.19;5015556;28;19999;-41
2023/11/18 09:47:32;;;;;;;;;;;;;;;6.72;100.00;101746.44;5016170;28;19917;-41
2023/11/18 09:49:59;;;;;;;;;;;;;;;6.72;100.00;101752.63;5021257;28;19975;-40
2023/11/18 09:52:24;;;;;;;;;;;;;;;6.72;100.00;101763.31;5022504;28;19913;-39
2023/11/18 09:54:52;;;;;;;;;;;;;;;6.76;100.00;101755.88;5019431;28;19920;-41
2023/11/18 09:57:29;;;;;;;;;;;;;;;6.80;100.00;101743.94;5020379;28;20452;-40
2023/11/18 09:59:58;;;;;;;;;;;;;;;6.79;100.00;101751.13;5015478;28;19963;-41
2023/11/18 10:02:23;;;;;;;;;;;;;;;6.83;100.00;101746.31;5015785;28;19913;-40
2023/11/18 10:04:49;;;;;;;;;;;;;;;6.87;100.00;101765.63;5014992;28;19917;-40
2023/11/18 10:07:16;;;;;;;;;;;;;;;6.91;100.00;101757.19;5014633;28;19944;-39
2023/11/18 10:09:43;;;;;;;;;;;;;;;6.93;100.00;101767.78;5013373;28;19913;-40
2023/11/18 10:12:08;;;;;;;;;;;;;;;6.91;100.00;101761.72;5014699;28;19960;-39
2023/11/18 10:14:34;;;;;;;;;;;;;;;6.91;100.00;101761.72;5014591;28;19913;-40
2023/11/18 10:17:00;;;;;;;;;;;;;;;6.95;100.00;101729.19;5014817;28;19924;-40
2023/11/18 10:19:25;;;;;;;;;;;;;;;6.95;100.00;101721.16;5012968;28;20291;-40
2023/11/18 10:21:51;;;;;;;;;;;;;;;6.93;100.00;101723.13;5014441;28;20007;-41
2023/11/18 10:24:19;;;;;;;;;;;;;;;6.94;100.00;101726.66;5013301;28;19917;-43
2023/11/18 10:26:45;;;;;;;;;;;;;;;6.93;100.00;101716.94;5013832;28;19967;-44
2023/11/18 10:29:12;;;;;;;;;;;;;;;6.95;100.00;101720.28;5012927;28;20331;-44
2023/11/18 10:31:44;;;;;;;;;;;;;;;6.93;100.00;101722.28;5013999;28;20379;-44
2023/11/18 10:34:11;;;;;;;;;;;;;;;6.90;100.00;101719.84;5013934;28;20348;-43
2023/11/18 10:36:36;;;;;;;;;;;;;;;6.88;100.00;101722.69;5033926;28;19967;-43
2023/11/18 10:39:03;;;;;;;;;;;;;;;6.90;100.00;101722.53;5038484;28;19968;-44
2023/11/18 10:41:30;;;;;;;;;;;;;;;6.91;100.00;101698.31;5053419;28;19940;-44
2023/11/18 10:44:05;;;;;;;;;;;;;;;6.94;100.00;101682.00;5032786;28;19979;-44
2023/11/18 10:46:32;;;;;;;;;;;;;;;6.94;100.00;101649.88;5035879;28;19928;-46
2023/11/18 10:48:58;;;;;;;;;;;;;;;6.94;100.00;101646.34;5030879;28;20038;-45
2023/11/18 10:51:26;;;;;;;;;;;;;;;6.96;100.00;101617.63;5029832;28;19917;-45
2023/11/18 10:54:03;;;;;;;;;;;;;;;6.91;100.00;101599.31;5026674;28;19956;-46
2023/11/18 10:56:29;;;;;;;;;;;;;;;6.93;100.00;101577.78;5027732;28;19967;-43
2023/11/18 10:59:07;;;;;;;;;;;;;;;6.91;100.00;101561.84;5024669;28;19917;-45
2023/11/18 11:01:42;;;;;;;;;;;;;;;6.94;100.00;101564.25;5043377;28;19921;-43
2023/11/18 11:04:10;;;;;;;;;;;;;;;6.97;100.00;101568.47;5038323;28;19913;-43
2023/11/18 11:06:36;;;;;;;;;;;;;;;7.01;100.00;101570.72;5031408;28;19921;-46
2023/11/18 11:09:09;;;;;;;;;;;;;;;7.04;100.00;101574.97;5026999;28;19917;-42
2023/11/18 11:11:39;;;;;;;;;;;;;;;7.07;100.00;101568.47;5031233;28;19921;-42
2023/11/18 11:14:05;;;;;;;;;;;;;;;7.05;100.00;101552.53;5020030;28;19917;-44
2023/11/18 11:16:34;;;;;;;;;;;;;;;7.08;100.00;101540.72;5025797;28;19993;-44
2023/11/18 11:19:00;;;;;;;;;;;;;;;7.10;100.00;101523.53;5031948;28;19921;-43
2023/11/18 11:21:28;;;;;;;;;;;;;;;7.15;100.00;101502.53;5031570;28;20359;-44
2023/11/18 11:23:55;;;;;;;;;;;;;;;7.18;100.00;101502.22;5032224;28;19921;-43
2023/11/18 11:26:27;;;;;;;;;;;;;;;7.17;100.00;101489.84;5043354;28;20019;-42
2023/11/18 11:28:58;;;;;;;;;;;;;;;7.18;100.00;101446.00;5041286;28;20524;-43
2023/11/18 11:31:27;;;;;;;;;;;;;;;7.19;100.00;101468.31;5046289;28;19998;-42
2023/11/18 11:33:58;;;;;;;;;;;;;;;7.24;100.00;101469.56;5018491;28;19913;-41
2023/11/18 11:36:27;;;;;;;;;;;;;;;7.26;100.00;101482.78;5017257;28;19975;-41
2023/11/18 11:38:52;;;;;;;;;;;;;;;7.26;100.00;101462.19;5022966;28;19974;-42
2023/11/18 11:41:26;;;;;;;;;;;;;;;7.32;100.00;101450.09;5014480;28;19924;-43
2023/11/18 11:43:51;;;;;;;;;;;;;;;7.31;100.00;101455.56;5035879;28;19927;-44
2023/11/18 11:46:22;;;;;;;;;;;;;;;7.35;100.00;101449.78;5023912;28;20007;-42
2023/11/18 11:48:48;;;;;;;;;;;;;;;7.37;100.00;101449.63;5025984;28;19921;-44
2023/11/18 11:51:26;;;;;;;;;;;;;;;7.37;100.00;101425.53;5022239;28;20000;-41
2023/11/18 11:54:04;;;;;;;;;;;;;;;7.36;100.00;101451.47;5037340;28;20077;-42
2023/11/18 11:56:40;;;;;;;;;;;;;;;7.39;100.00;101431.59;5022694;28;19925;-44
2023/11/18 11:59:05;;;;;;;;;;;;;;;7.40;100.00;101426.09;5008959;28;19960;-45
2023/11/18 12:01:35;;;;;;;;;;;;;;;7.39;100.00;101434.25;5025024;28;19952;-44
2023/11/18 12:04:07;;;;;;;;;;;;;;;7.38;100.00;101441.47;5022730;28;20007;-45
2023/11/18 12:06:38;;;;;;;;;;;;;;;7.38;100.00;101481.63;5025957;28;19935;-44
2023/11/18 12:09:07;;;;;;;;;;;;;;;7.38;100.00;101433.44;5015563;28;20376;-44
2023/11/18 12:11:39;;;;;;;;;;;;;;;7.36;100.00;101405.94;5024636;28;20368;-45
2023/11/18 12:17:01;;;;;;;;;;;;;;;7.37;100.00;101398.75;5028209;28;19917;-42
2023/11/18 12:19:32;;;;;;;;;;;;;;;7.38;100.00;101389.75;5026590;28;20368;-45
2023/11/18 12:22:00;;;;;;;;;;;;;;;7.35;100.00;101374.81;5028293;28;19913;-43
2023/11/18 12:24:25;;;;;;;;;;;;;;;7.34;100.00;101366.91;5026335;28;19917;-44
2023/11/18 12:26:51;;;;;;;;;;;;;;;7.34;100.00;101366.91;5024912;28;19913;-45
2023/11/18 12:29:34;;;;;;;;;;;;;;;7.36;100.00;101365.78;5026987;28;19925;-43
2023/11/18 12:31:59;;;;;;;;;;;;;;;7.41;100.00;101351.94;5018210;28;19917;-44
2023/11/18 12:34:26;;;;;;;;;;;;;;;7.40;100.00;101350.28;5030261;28;20324;-45
2023/11/18 12:37:11;;;;;;;;;;;;;;;7.40;100.00;101361.81;5029748;28;19921;-44
2023/11/18 12:39:50;;;;;;;;;;;;;;;7.41;100.00;101338.56;5019503;28;19921;-41